createdAt,value
2023-02-27T00:00:16.609Z,70.77
2023-02-27T00:02:43.869Z,71.26
2023-02-27T00:05:10.615Z,70.57
2023-02-27T00:07:37.349Z,70.95
2023-02-27T00:10:06.730Z,71.20
2023-02-27T00:12:37.864Z,71.00
2023-02-27T00:15:08.474Z,71.25
2023-02-27T00:17:35.272Z,72.24
2023-02-27T00:20:01.915Z,72.12
2023-02-27T00:22:28.456Z,72.22
2023-02-27T00:24:55.085Z,71.51
2023-02-27T00:27:21.628Z,71.45
2023-02-27T00:29:48.581Z,71.40
2023-02-27T00:32:15.177Z,72.03
2023-02-27T00:34:41.984Z,71.68
2023-02-27T00:37:10.265Z,71.66
2023-02-27T00:39:36.831Z,71.68
2023-02-27T00:42:03.393Z,71.92
2023-02-27T00:44:29.948Z,71.91
2023-02-27T00:46:56.498Z,71.74
2023-02-27T00:49:23.062Z,71.72
2023-02-27T00:51:49.712Z,72.20
2023-02-27T00:54:16.276Z,71.89
2023-02-27T00:56:42.889Z,72.19
2023-02-27T00:59:09.883Z,71.98
2023-02-27T01:01:36.466Z,71.79
2023-02-27T01:04:03.166Z,71.37
2023-02-27T01:06:30.387Z,71.39
2023-02-27T01:08:56.923Z,71.58
2023-02-27T01:11:24.782Z,71.58
2023-02-27T01:13:51.873Z,72.17
2023-02-27T01:16:18.578Z,71.84
2023-02-27T01:18:45.638Z,71.71
2023-02-27T01:21:12.224Z,71.64
2023-02-27T01:23:38.778Z,71.71
2023-02-27T01:26:05.337Z,71.94
2023-02-27T01:28:33.775Z,72.25
2023-02-27T01:31:00.381Z,71.89
2023-02-27T01:33:26.951Z,72.14
2023-02-27T01:35:53.485Z,71.72
2023-02-27T01:38:20.085Z,72.48
2023-02-27T01:40:46.675Z,72.04
2023-02-27T01:43:18.305Z,72.27
2023-02-27T01:45:47.954Z,72.46
2023-02-27T01:48:17.163Z,72.30
2023-02-27T01:50:46.827Z,72.24
2023-02-27T01:53:13.369Z,71.99
2023-02-27T01:55:39.950Z,72.33
2023-02-27T01:58:07.022Z,72.24
2023-02-27T02:00:33.611Z,72.21
2023-02-27T02:03:12.367Z,72.55
2023-02-27T02:05:40.989Z,72.57
2023-02-27T02:08:08.163Z,72.10
2023-02-27T02:10:34.728Z,72.75
2023-02-27T02:13:03.522Z,72.22
2023-02-27T02:15:32.534Z,72.73
2023-02-27T02:18:13.419Z,72.83
2023-02-27T02:20:48.800Z,72.64
2023-02-27T02:23:23.102Z,72.90
2023-02-27T02:25:53.122Z,72.65
2023-02-27T02:28:38.848Z,72.70
2023-02-27T02:31:21.337Z,73.06
2023-02-27T02:34:06.754Z,72.97
2023-02-27T02:36:51.257Z,72.82
2023-02-27T02:39:34.264Z,72.60
2023-02-27T02:42:04.928Z,72.95
2023-02-27T02:44:40.165Z,73.08
2023-02-27T02:47:12.558Z,73.04
2023-02-27T02:49:43.388Z,73.37
2023-02-27T02:52:09.886Z,73.33
2023-02-27T02:54:36.345Z,73.22
2023-02-27T02:57:05.612Z,73.41
2023-02-27T02:59:39.041Z,73.81
2023-02-27T03:02:12.442Z,73.42
2023-02-27T03:04:43.441Z,73.26
2023-02-27T03:07:30.601Z,73.40
2023-02-27T03:10:09.339Z,73.67
2023-02-27T03:12:36.377Z,73.39
2023-02-27T03:15:26.330Z,73.88
2023-02-27T03:17:54.080Z,73.73
2023-02-27T03:20:34.584Z,73.92
2023-02-27T03:23:02.263Z,74.03
2023-02-27T03:25:28.867Z,73.92
2023-02-27T03:28:15.636Z,74.24
2023-02-27T03:30:47.201Z,74.27
2023-02-27T03:33:25.001Z,73.98
2023-02-27T03:35:51.500Z,74.05
2023-02-27T03:38:27.935Z,73.99
2023-02-27T03:41:09.948Z,74.42
2023-02-27T03:43:46.989Z,74.06
2023-02-27T03:46:21.778Z,74.38
2023-02-27T03:48:50.784Z,74.38
2023-02-27T03:51:21.188Z,73.98
2023-02-27T03:53:49.281Z,74.32
2023-02-27T03:56:16.899Z,73.68
2023-02-27T03:58:43.692Z,74.25
2023-02-27T04:01:10.309Z,74.26
2023-02-27T04:03:37.772Z,74.38
2023-02-27T04:06:24.606Z,74.09
2023-02-27T04:08:54.732Z,74.08
2023-02-27T04:11:21.216Z,74.26
2023-02-27T04:14:02.991Z,74.19
2023-02-27T04:16:56.028Z,74.33
2023-02-27T04:19:22.520Z,74.90
2023-02-27T04:21:56.758Z,74.48
2023-02-27T04:24:29.433Z,74.57
2023-02-27T04:26:59.614Z,74.66
2023-02-27T04:29:48.873Z,73.96
2023-02-27T04:32:17.440Z,74.47
2023-02-27T04:34:45.638Z,74.65
2023-02-27T04:37:13.403Z,74.72
2023-02-27T04:39:42.358Z,74.12
2023-02-27T04:42:13.492Z,74.19
2023-02-27T04:44:40.133Z,74.28
2023-02-27T04:47:07.244Z,74.35
2023-02-27T04:49:44.687Z,74.14
2023-02-27T04:52:40.760Z,74.32
2023-02-27T04:55:12.166Z,74.36
2023-02-27T04:57:41.334Z,74.33
2023-02-27T05:00:09.534Z,74.33
2023-02-27T05:02:37.225Z,74.19
2023-02-27T05:05:05.062Z,74.58
2023-02-27T05:07:33.156Z,74.54
2023-02-27T05:10:04.068Z,74.61
2023-02-27T05:12:33.738Z,74.75
2023-02-27T05:15:02.497Z,75.01
2023-02-27T05:17:33.409Z,74.71
2023-02-27T05:20:00.093Z,74.45
2023-02-27T05:22:33.448Z,74.65
2023-02-27T05:25:02.771Z,74.51
2023-02-27T05:27:38.337Z,74.77
2023-02-27T05:30:06.560Z,75.05
2023-02-27T05:32:47.903Z,74.86
2023-02-27T05:35:20.829Z,74.56
2023-02-27T05:37:52.339Z,74.90
2023-02-27T05:40:21.374Z,74.90
2023-02-27T05:42:50.111Z,74.58
2023-02-27T05:45:21.003Z,74.78
2023-02-27T05:47:49.486Z,74.65
2023-02-27T05:50:17.421Z,75.19
2023-02-27T05:52:44.503Z,75.02
2023-02-27T05:55:18.597Z,74.86
2023-02-27T05:57:52.982Z,75.14
2023-02-27T06:00:33.886Z,75.23
2023-02-27T06:03:00.498Z,74.77
2023-02-27T06:05:27.306Z,74.57
2023-02-27T06:07:53.809Z,74.66
2023-02-27T06:10:20.685Z,75.13
2023-02-27T06:12:47.931Z,75.19
2023-02-27T06:15:14.507Z,75.23
2023-02-27T06:17:41.130Z,75.26
2023-02-27T06:20:08.072Z,75.21
2023-02-27T06:22:34.771Z,75.39
2023-02-27T06:25:01.398Z,75.28
2023-02-27T06:27:27.978Z,75.33
2023-02-27T06:29:54.572Z,75.66
2023-02-27T06:32:21.523Z,74.88
2023-02-27T06:34:48.155Z,74.89
2023-02-27T06:37:14.698Z,74.67
2023-02-27T06:39:41.238Z,74.85
2023-02-27T06:42:07.779Z,75.16
2023-02-27T06:44:34.293Z,75.03
2023-02-27T06:47:00.864Z,74.89
2023-02-27T06:49:27.427Z,75.02
2023-02-27T06:51:53.980Z,75.38
2023-02-27T06:54:51.325Z,75.25
2023-02-27T06:57:18.022Z,75.05
2023-02-27T06:59:45.339Z,74.63
2023-02-27T07:02:15.580Z,74.06
2023-02-27T07:04:42.253Z,74.25
2023-02-27T07:07:32.939Z,74.10
2023-02-27T07:09:55.320Z,74.04
2023-02-27T07:12:22.087Z,73.06
2023-02-27T07:14:48.650Z,73.74
2023-02-27T07:17:15.188Z,73.38
2023-02-27T07:19:41.707Z,72.72
2023-02-27T07:22:09.733Z,73.22
2023-02-27T07:24:36.810Z,72.79
2023-02-27T07:27:03.439Z,73.36
2023-02-27T07:29:30.097Z,72.87
2023-02-27T07:31:56.732Z,73.10
2023-02-27T07:34:23.249Z,72.14
2023-02-27T07:36:50.243Z,72.62
2023-02-27T07:39:16.778Z,71.80
2023-02-27T07:41:43.348Z,71.59
2023-02-27T07:44:16.470Z,71.69
2023-02-27T07:46:44.866Z,71.06
2023-02-27T07:49:11.437Z,71.12
2023-02-27T07:51:37.993Z,70.69
2023-02-27T07:54:04.651Z,70.53
2023-02-27T07:56:31.270Z,69.68
2023-02-27T07:58:57.810Z,69.81
2023-02-27T08:01:24.342Z,68.42
2023-02-27T08:03:50.971Z,68.83
2023-02-27T08:06:17.571Z,68.90
2023-02-27T08:08:44.148Z,68.46
2023-02-27T08:11:11.045Z,68.43
2023-02-27T08:16:24.211Z,67.59
2023-02-27T08:18:50.789Z,67.28
2023-02-27T08:21:17.348Z,67.23
2023-02-27T08:23:43.871Z,66.47
2023-02-27T08:26:10.916Z,66.05
2023-02-27T08:28:37.796Z,64.84
2023-02-27T08:31:04.461Z,65.22
2023-02-27T08:33:30.988Z,64.83
2023-02-27T08:35:57.651Z,63.32
2023-02-27T08:38:26.308Z,62.63
2023-02-27T08:40:55.738Z,62.31
2023-02-27T08:43:22.421Z,60.44
2023-02-27T08:45:49.268Z,61.50
2023-02-27T08:48:16.535Z,59.17
2023-02-27T08:50:43.220Z,59.27
2023-02-27T08:53:10.072Z,57.68
2023-02-27T08:55:36.621Z,58.03
2023-02-27T08:58:03.193Z,57.90
2023-02-27T09:00:29.915Z,56.98
2023-02-27T09:02:56.784Z,54.27
2023-02-27T09:05:23.415Z,55.09
2023-02-27T09:07:50.491Z,53.29
2023-02-27T09:10:17.961Z,51.04
2023-02-27T09:12:44.535Z,51.51
2023-02-27T09:15:11.603Z,52.75
2023-02-27T09:17:38.172Z,53.98
2023-02-27T09:20:05.155Z,53.94
2023-02-27T09:22:31.828Z,54.36
2023-02-27T09:24:58.376Z,53.29
2023-02-27T09:27:26.075Z,54.02
2023-02-27T09:29:58.378Z,53.36
2023-02-27T09:32:25.651Z,53.34
2023-02-27T09:34:52.279Z,52.42
2023-02-27T09:37:21.904Z,51.21
2023-02-27T09:39:48.501Z,53.04
2023-02-27T09:42:19.249Z,53.95
2023-02-27T09:44:59.331Z,52.23
2023-02-27T09:47:30.078Z,52.73
2023-02-27T09:50:07.157Z,51.76
2023-02-27T09:52:34.713Z,51.54
2023-02-27T09:55:01.322Z,53.68
2023-02-27T09:57:30.861Z,51.62
2023-02-27T10:00:00.040Z,52.57
2023-02-27T10:02:32.476Z,52.17
2023-02-27T10:05:03.625Z,49.15
2023-02-27T10:07:42.500Z,49.86
2023-02-27T10:10:09.024Z,48.58
2023-02-27T10:12:47.800Z,47.39
2023-02-27T10:15:16.414Z,45.51
2023-02-27T10:17:44.398Z,46.85
2023-02-27T10:20:14.630Z,46.51
2023-02-27T10:22:42.856Z,47.57
2023-02-27T10:25:28.708Z,46.26
2023-02-27T10:27:59.146Z,44.75
2023-02-27T10:30:30.849Z,46.29
2023-02-27T10:33:12.983Z,46.88
2023-02-27T10:35:40.260Z,46.82
2023-02-27T10:38:10.859Z,45.74
2023-02-27T10:40:37.476Z,47.51
2023-02-27T10:43:06.202Z,45.93
2023-02-27T10:45:33.397Z,45.39
2023-02-27T10:48:04.447Z,43.79
2023-02-27T10:50:32.342Z,45.29
2023-02-27T10:53:00.250Z,43.90
2023-02-27T10:55:36.005Z,44.70
2023-02-27T10:58:02.882Z,46.19
2023-02-27T11:00:31.654Z,45.44
2023-02-27T11:02:58.204Z,44.96
2023-02-27T11:05:34.621Z,44.26
2023-02-27T11:08:20.761Z,45.24
2023-02-27T11:10:54.684Z,44.15
2023-02-27T11:13:22.395Z,43.40
2023-02-27T11:16:05.989Z,44.19
2023-02-27T11:18:32.739Z,43.50
2023-02-27T11:21:25.968Z,42.13
2023-02-27T11:23:57.420Z,40.28
2023-02-27T11:26:25.777Z,41.12
2023-02-27T11:29:15.125Z,42.27
2023-02-27T11:31:49.099Z,39.62
2023-02-27T11:34:21.919Z,38.65
2023-02-27T11:36:49.277Z,39.91
2023-02-27T11:39:23.239Z,39.08
2023-02-27T11:41:49.808Z,37.25
2023-02-27T11:44:17.679Z,37.06
2023-02-27T11:46:50.691Z,35.83
2023-02-27T11:49:37.484Z,35.30
2023-02-27T11:52:12.584Z,37.48
2023-02-27T11:54:53.887Z,38.18
2023-02-27T11:57:40.659Z,38.63
2023-02-27T12:00:07.400Z,40.07
2023-02-27T12:02:46.106Z,40.62
2023-02-27T12:05:17.247Z,39.23
2023-02-27T12:07:48.792Z,40.23
2023-02-27T12:10:22.265Z,38.71
2023-02-27T12:12:52.984Z,39.45
2023-02-27T12:15:22.493Z,41.85
2023-02-27T12:18:04.213Z,42.15
2023-02-27T12:20:39.951Z,43.75
2023-02-27T12:23:11.851Z,43.14
2023-02-27T12:25:41.197Z,43.34
2023-02-27T12:28:08.361Z,45.08
2023-02-27T12:30:47.182Z,44.59
2023-02-27T12:33:16.690Z,44.51
2023-02-27T12:35:43.718Z,44.39
2023-02-27T12:38:12.073Z,45.69
2023-02-27T12:40:46.074Z,44.61
2023-02-27T12:43:31.476Z,45.57
2023-02-27T12:46:05.204Z,46.00
2023-02-27T12:48:41.943Z,47.17
2023-02-27T12:51:16.746Z,45.26
2023-02-27T12:53:55.154Z,45.91
2023-02-27T12:56:22.137Z,46.56
2023-02-27T12:58:58.213Z,45.22
2023-02-27T13:01:27.980Z,45.51
2023-02-27T13:03:57.621Z,46.08
2023-02-27T13:06:29.785Z,46.42
2023-02-27T13:09:02.515Z,45.45
2023-02-27T13:11:35.104Z,45.78
2023-02-27T13:14:03.322Z,45.68
2023-02-27T13:16:35.980Z,45.64
2023-02-27T13:19:06.770Z,46.79
2023-02-27T13:21:35.344Z,45.58
2023-02-27T13:24:02.444Z,46.78
2023-02-27T13:26:31.000Z,46.39
2023-02-27T13:28:57.981Z,47.90
2023-02-27T13:31:37.678Z,46.50
2023-02-27T13:34:18.165Z,47.23
2023-02-27T13:36:49.472Z,47.64
2023-02-27T13:39:34.923Z,47.35
2023-02-27T13:42:01.469Z,47.46
2023-02-27T13:44:29.001Z,47.77
2023-02-27T13:46:55.590Z,48.72
2023-02-27T13:49:29.284Z,47.78
2023-02-27T13:51:59.660Z,44.92
2023-02-27T13:54:26.445Z,45.52
2023-02-27T13:56:57.650Z,45.31
2023-02-27T13:59:31.118Z,46.18
2023-02-27T14:01:58.682Z,45.49
2023-02-27T14:04:26.563Z,46.16
2023-02-27T14:07:21.360Z,46.42
2023-02-27T14:09:48.945Z,45.30
2023-02-27T14:12:44.646Z,44.59
2023-02-27T14:15:18.421Z,44.43
2023-02-27T14:17:45.731Z,45.87
2023-02-27T14:20:12.219Z,47.12
2023-02-27T14:22:40.128Z,45.89
2023-02-27T14:25:12.807Z,47.50
2023-02-27T14:27:48.154Z,46.83
2023-02-27T14:30:29.360Z,46.65
2023-02-27T14:32:58.301Z,46.36
2023-02-27T14:35:25.444Z,47.91
2023-02-27T14:37:53.563Z,47.91
2023-02-27T14:40:29.664Z,46.94
2023-02-27T14:43:03.535Z,46.00
2023-02-27T14:45:31.112Z,47.93
2023-02-27T14:47:57.708Z,48.95
2023-02-27T14:50:32.474Z,48.94
2023-02-27T14:52:59.089Z,48.48
2023-02-27T14:55:30.041Z,47.33
2023-02-27T14:58:00.964Z,48.97
2023-02-27T15:00:44.179Z,48.29
2023-02-27T15:03:24.266Z,48.00
2023-02-27T15:05:51.774Z,47.77
2023-02-27T15:08:20.380Z,46.31
2023-02-27T15:10:47.006Z,47.23
2023-02-27T15:13:27.978Z,47.65
2023-02-27T15:16:16.573Z,48.51
2023-02-27T15:18:43.457Z,47.60
2023-02-27T15:21:12.784Z,48.01
2023-02-27T15:23:39.358Z,47.99
2023-02-27T15:26:06.228Z,46.69
2023-02-27T15:28:36.180Z,47.95
2023-02-27T15:31:02.790Z,47.98
2023-02-27T15:33:30.035Z,47.48
2023-02-27T15:35:57.073Z,48.74
2023-02-27T15:38:30.946Z,48.54
2023-02-27T15:40:57.867Z,48.03
2023-02-27T15:43:24.998Z,48.48
2023-02-27T15:45:51.983Z,47.63
2023-02-27T15:48:18.553Z,48.52
2023-02-27T15:50:49.324Z,47.52
2023-02-27T15:53:17.947Z,48.31
2023-02-27T15:55:50.771Z,48.15
2023-02-27T15:58:28.516Z,47.57
2023-02-27T16:01:00.886Z,49.81
2023-02-27T16:03:33.177Z,48.67
2023-02-27T16:05:59.962Z,49.53
2023-02-27T16:08:27.444Z,47.69
2023-02-27T16:10:54.003Z,50.13
2023-02-27T16:13:26.785Z,50.79
2023-02-27T16:16:19.412Z,49.09
2023-02-27T16:18:47.386Z,49.76
2023-02-27T16:21:15.419Z,48.30
2023-02-27T16:23:42.204Z,49.06
2023-02-27T16:26:08.699Z,48.82
2023-02-27T16:28:43.081Z,49.67
2023-02-27T16:31:20.666Z,49.81
2023-02-27T16:33:47.901Z,48.57
2023-02-27T16:36:16.246Z,49.84
2023-02-27T16:38:42.956Z,50.13
2023-02-27T16:41:12.957Z,49.40
2023-02-27T16:43:39.568Z,49.14
2023-02-27T16:46:06.579Z,50.54
2023-02-27T16:48:33.171Z,49.58
2023-02-27T16:50:59.751Z,49.00
2023-02-27T16:53:26.312Z,50.18
2023-02-27T16:55:55.170Z,49.24
2023-02-27T16:58:21.852Z,49.78
2023-02-27T17:00:48.461Z,49.77
2023-02-27T17:03:15.052Z,50.80
2023-02-27T17:05:41.690Z,50.92
2023-02-27T17:08:09.603Z,49.44
2023-02-27T17:10:36.160Z,50.87
2023-02-27T17:13:02.678Z,51.93
2023-02-27T17:15:29.215Z,50.33
2023-02-27T17:17:55.884Z,49.82
2023-02-27T17:20:23.257Z,50.85
2023-02-27T17:22:49.925Z,51.13
2023-02-27T17:25:16.569Z,51.78
2023-02-27T17:27:43.838Z,50.47
2023-02-27T17:30:10.818Z,51.38
2023-02-27T17:32:37.376Z,51.03
2023-02-27T17:35:04.263Z,51.20
2023-02-27T17:37:30.776Z,51.83
2023-02-27T17:39:57.300Z,50.79
2023-02-27T17:42:25.869Z,52.66
2023-02-27T17:44:52.649Z,51.52
2023-02-27T17:47:19.380Z,52.82
2023-02-27T17:49:46.429Z,52.91
2023-02-27T17:52:13.123Z,52.67
2023-02-27T17:54:39.749Z,53.83
2023-02-27T17:57:06.929Z,53.32
2023-02-27T17:59:33.709Z,52.86
2023-02-27T18:02:00.305Z,54.32
2023-02-27T18:04:27.040Z,53.95
2023-02-27T18:06:53.797Z,53.86
2023-02-27T18:09:20.342Z,53.22
2023-02-27T18:11:47.025Z,54.12
2023-02-27T18:14:13.943Z,52.02
2023-02-27T18:16:41.437Z,53.64
2023-02-27T18:19:08.128Z,52.59
2023-02-27T18:21:34.899Z,53.32
2023-02-27T18:24:01.569Z,53.48
2023-02-27T18:26:31.114Z,53.75
2023-02-27T18:29:00.357Z,53.75
2023-02-27T18:31:37.576Z,52.43
2023-02-27T18:34:04.245Z,53.25
2023-02-27T18:36:31.617Z,54.02
2023-02-27T18:38:58.665Z,53.89
2023-02-27T18:41:25.403Z,54.58
2023-02-27T18:43:52.031Z,54.92
2023-02-27T18:46:18.856Z,53.52
2023-02-27T18:48:45.599Z,55.30
2023-02-27T18:51:14.505Z,54.44
2023-02-27T18:53:41.649Z,54.12
2023-02-27T18:56:08.997Z,53.63
2023-02-27T18:58:35.783Z,53.74
2023-02-27T19:01:04.306Z,54.60
2023-02-27T19:03:31.119Z,54.02
2023-02-27T19:05:57.925Z,55.64
2023-02-27T19:08:31.582Z,54.28
2023-02-27T19:10:58.568Z,51.83
2023-02-27T19:13:25.471Z,51.18
2023-02-27T19:15:52.307Z,51.72
2023-02-27T19:18:18.878Z,51.27
2023-02-27T19:20:45.399Z,52.68
2023-02-27T19:23:11.960Z,52.34
2023-02-27T19:25:38.546Z,51.81
2023-02-27T19:28:06.547Z,52.08
2023-02-27T19:30:33.090Z,51.88
2023-02-27T19:32:59.701Z,52.93
2023-02-27T19:35:26.304Z,52.24
2023-02-27T19:37:57.119Z,53.79
2023-02-27T19:40:24.421Z,53.11
2023-02-27T19:42:51.495Z,53.10
2023-02-27T19:45:18.020Z,54.12
2023-02-27T19:47:45.023Z,53.05
2023-02-27T19:50:11.822Z,55.19
2023-02-27T19:52:41.109Z,54.94
2023-02-27T19:55:07.963Z,53.96
2023-02-27T19:57:35.010Z,53.83
2023-02-27T20:00:01.551Z,53.76
2023-02-27T20:02:28.193Z,54.58
2023-02-27T20:04:54.814Z,54.91
2023-02-27T20:07:21.376Z,54.75
2023-02-27T20:09:47.944Z,55.89
2023-02-27T20:12:14.508Z,53.85
2023-02-27T20:14:41.210Z,54.75
2023-02-27T20:17:08.244Z,54.82
2023-02-27T20:19:36.540Z,56.26
2023-02-27T20:22:03.093Z,55.55
2023-02-27T20:24:29.677Z,55.84
2023-02-27T20:26:59.175Z,55.60
2023-02-27T20:29:26.469Z,55.27
2023-02-27T20:31:53.672Z,54.54
2023-02-27T20:34:25.871Z,55.80
2023-02-27T20:36:53.042Z,54.95
2023-02-27T20:39:20.157Z,55.85
2023-02-27T20:41:46.747Z,56.53
2023-02-27T20:44:13.517Z,55.50
2023-02-27T20:46:40.776Z,56.05
2023-02-27T20:49:07.453Z,55.79
2023-02-27T20:51:36.172Z,56.03
2023-02-27T20:54:03.609Z,56.52
2023-02-27T20:56:31.418Z,56.14
2023-02-27T20:58:59.772Z,56.59
2023-02-27T21:01:26.560Z,56.35
2023-02-27T21:03:55.738Z,55.44
2023-02-27T21:06:22.501Z,56.38
2023-02-27T21:08:49.612Z,56.71
2023-02-27T21:11:17.432Z,56.35
2023-02-27T21:13:44.358Z,56.21
2023-02-27T21:16:11.706Z,55.69
2023-02-27T21:18:38.377Z,56.54
2023-02-27T21:21:05.625Z,56.28
2023-02-27T21:23:32.277Z,56.33
2023-02-27T21:25:59.104Z,55.86
2023-02-27T21:28:25.905Z,55.67
2023-02-27T21:30:54.684Z,55.47
2023-02-27T21:33:22.447Z,55.90
2023-02-27T21:35:49.143Z,55.10
2023-02-27T21:38:16.565Z,55.34
2023-02-27T21:40:43.555Z,56.52
2023-02-27T21:43:10.092Z,56.70
2023-02-27T21:45:41.576Z,55.76
2023-02-27T21:48:08.407Z,55.95
2023-02-27T21:50:36.033Z,55.77
2023-02-27T21:53:02.556Z,56.97
2023-02-27T21:55:29.098Z,56.42
2023-02-27T21:57:55.653Z,56.13
2023-02-27T22:00:26.501Z,56.27
2023-02-27T22:02:53.426Z,56.10
2023-02-27T22:05:20.191Z,56.45
2023-02-27T22:07:47.013Z,56.01
2023-02-27T22:10:13.558Z,56.16
2023-02-27T22:12:40.105Z,57.22
2023-02-27T22:15:06.862Z,57.50
2023-02-27T22:17:33.445Z,56.90
2023-02-27T22:20:00.073Z,57.91
2023-02-27T22:22:26.716Z,58.58
2023-02-27T22:24:53.253Z,58.46
2023-02-27T22:27:20.163Z,58.27
2023-02-27T22:29:46.718Z,58.45
2023-02-27T22:32:13.275Z,58.59
2023-02-27T22:34:39.825Z,58.79
2023-02-27T22:37:06.392Z,59.92
2023-02-27T22:39:32.922Z,59.51
2023-02-27T22:41:59.520Z,59.00
2023-02-27T22:44:26.184Z,59.33
2023-02-27T22:46:54.719Z,59.55
2023-02-27T22:49:22.334Z,60.00
2023-02-27T22:51:50.944Z,60.91
2023-02-27T22:54:18.397Z,60.87
2023-02-27T22:56:45.097Z,60.22
2023-02-27T22:59:11.626Z,61.07
2023-02-27T23:01:38.248Z,60.31
2023-02-27T23:04:06.270Z,60.51
2023-02-27T23:06:34.194Z,61.13
2023-02-27T23:09:01.092Z,60.85
2023-02-27T23:11:28.155Z,61.45
2023-02-27T23:13:54.853Z,61.52
2023-02-27T23:16:21.436Z,61.22
2023-02-27T23:18:49.190Z,61.38
2023-02-27T23:21:16.490Z,60.87
2023-02-27T23:23:43.404Z,61.74
2023-02-27T23:26:09.940Z,62.15
2023-02-27T23:28:36.863Z,61.43
2023-02-27T23:31:06.316Z,61.85
2023-02-27T23:33:32.970Z,61.94
2023-02-27T23:35:59.579Z,61.95
2023-02-27T23:38:26.317Z,62.22
2023-02-27T23:40:52.870Z,62.25
2023-02-27T23:43:38.307Z,62.38
2023-02-27T23:46:06.197Z,63.15
2023-02-27T23:48:32.790Z,63.13
2023-02-27T23:50:59.367Z,63.44
2023-02-27T23:53:26.075Z,63.22
2023-02-27T23:55:52.647Z,62.93
2023-02-27T23:58:19.205Z,63.11
